createdAt,value
2023-01-18T00:00:05.656Z,976.17
2023-01-18T00:00:46.161Z,976.18
2023-01-18T00:01:26.682Z,976.14
2023-01-18T00:03:40.011Z,976.2
2023-01-18T00:04:20.454Z,976.21
2023-01-18T00:05:01.024Z,976.2
2023-01-18T00:05:41.490Z,976.2
2023-01-18T00:06:22.633Z,976.2
2023-01-18T00:07:03.729Z,976.23
2023-01-18T00:07:44.255Z,976.22
2023-01-18T00:08:24.756Z,976.2
2023-01-18T00:09:06.001Z,976.24
2023-01-18T00:09:46.522Z,976.23
2023-01-18T00:10:27.005Z,976.24
2023-01-18T00:11:07.526Z,976.21
2023-01-18T00:11:48.031Z,976.23
2023-01-18T00:12:28.554Z,976.25
2023-01-18T00:13:09.073Z,976.18
2023-01-18T00:13:49.626Z,976.21
2023-01-18T00:14:30.165Z,976.25
2023-01-18T00:16:59.924Z,976.26
2023-01-18T00:17:40.435Z,976.3
2023-01-18T00:18:20.980Z,976.27
2023-01-18T00:19:01.535Z,976.27
2023-01-18T00:19:42.005Z,976.26
2023-01-18T00:20:22.521Z,976.27
2023-01-18T00:21:03.051Z,976.3
2023-01-18T00:21:43.551Z,976.3
2023-01-18T00:22:24.061Z,976.28
2023-01-18T00:23:04.621Z,976.28
2023-01-18T00:23:46.004Z,976.32
2023-01-18T00:24:26.526Z,976.29
2023-01-18T00:25:07.028Z,976.28
2023-01-18T00:25:47.555Z,976.29
2023-01-18T00:26:28.095Z,976.29
2023-01-18T00:27:08.628Z,976.29
2023-01-18T00:27:49.192Z,976.29
2023-01-18T00:28:29.724Z,976.27
2023-01-18T00:29:10.228Z,976.26
2023-01-18T00:29:50.746Z,976.26
2023-01-18T00:30:32.177Z,976.25
2023-01-18T00:31:12.693Z,976.26
2023-01-18T00:33:26.645Z,976.23
2023-01-18T00:34:07.841Z,976.24
2023-01-18T00:34:50.452Z,976.26
2023-01-18T00:35:28.884Z,976.25
2023-01-18T00:37:41.929Z,976.25
2023-01-18T00:38:22.449Z,976.27
2023-01-18T00:39:02.955Z,976.26
2023-01-18T00:39:43.499Z,976.29
2023-01-18T00:41:58.825Z,976.28
2023-01-18T00:42:40.114Z,976.29
2023-01-18T00:43:20.693Z,976.33
2023-01-18T00:44:01.303Z,976.34
2023-01-18T00:46:14.456Z,976.3
2023-01-18T00:46:54.958Z,976.3
2023-01-18T00:47:36.224Z,976.32
2023-01-18T00:48:17.356Z,976.32
2023-01-18T00:50:15.825Z,976.32
2023-01-18T00:50:56.353Z,976.3
2023-01-18T00:51:36.878Z,976.26
2023-01-18T00:52:17.418Z,976.3
2023-01-18T00:52:58.348Z,976.3
2023-01-18T00:53:38.493Z,976.29
2023-01-18T00:54:19.003Z,976.28
2023-01-18T00:54:59.513Z,976.3
2023-01-18T00:55:40.055Z,976.28
2023-01-18T00:56:20.550Z,976.32
2023-01-18T00:57:01.082Z,976.31
2023-01-18T00:57:41.605Z,976.33
2023-01-18T00:58:22.145Z,976.29
2023-01-18T00:59:02.652Z,976.3
2023-01-18T00:59:43.156Z,976.35
2023-01-18T01:00:23.699Z,976.3
2023-01-18T01:01:04.241Z,976.32
2023-01-18T01:01:44.769Z,976.32
2023-01-18T01:02:25.312Z,976.31
2023-01-18T01:03:05.795Z,976.33
2023-01-18T01:03:46.382Z,976.32
2023-01-18T01:04:26.897Z,976.3
2023-01-18T01:05:07.412Z,976.35
2023-01-18T01:05:47.964Z,976.34
2023-01-18T01:06:28.474Z,976.32
2023-01-18T01:07:08.989Z,976.33
2023-01-18T01:07:49.509Z,976.37
2023-01-18T01:08:30.025Z,976.39
2023-01-18T01:09:10.552Z,976.37
2023-01-18T01:09:51.068Z,976.4
2023-01-18T01:10:31.580Z,976.42
2023-01-18T01:11:12.144Z,976.4
2023-01-18T01:11:52.674Z,976.4
2023-01-18T01:12:33.215Z,976.42
2023-01-18T01:13:13.807Z,976.39
2023-01-18T01:13:54.334Z,976.4
2023-01-18T01:14:34.895Z,976.44
2023-01-18T01:15:15.443Z,976.45
2023-01-18T01:15:55.990Z,976.5
2023-01-18T01:16:36.549Z,976.47
2023-01-18T01:17:17.064Z,976.44
2023-01-18T01:17:57.616Z,976.45
2023-01-18T01:18:38.145Z,976.45
2023-01-18T01:19:18.667Z,976.44
2023-01-18T01:19:59.184Z,976.45
2023-01-18T01:20:39.738Z,976.47
2023-01-18T01:22:52.801Z,976.45
2023-01-18T01:23:34.184Z,976.5
2023-01-18T01:24:14.683Z,976.51
2023-01-18T01:24:55.246Z,976.53
2023-01-18T01:27:08.247Z,976.57
2023-01-18T01:27:48.765Z,976.55
2023-01-18T01:28:30.681Z,976.59
2023-01-18T01:29:11.229Z,976.59
2023-01-18T01:29:51.783Z,976.62
2023-01-18T01:30:32.408Z,976.61
2023-01-18T01:31:12.876Z,976.61
2023-01-18T01:31:53.428Z,976.62
2023-01-18T01:32:34.083Z,976.65
2023-01-18T01:33:14.645Z,976.67
2023-01-18T01:33:55.222Z,976.64
2023-01-18T01:34:35.786Z,976.66
2023-01-18T01:35:16.341Z,976.67
2023-01-18T01:35:56.846Z,976.65
2023-01-18T01:36:37.406Z,976.65
2023-01-18T01:37:17.942Z,976.68
2023-01-18T01:37:58.513Z,976.68
2023-01-18T01:38:39.041Z,976.67
2023-01-18T01:39:19.565Z,976.68
2023-01-18T01:40:00.148Z,976.68
2023-01-18T01:40:40.696Z,976.68
2023-01-18T01:41:21.257Z,976.66
2023-01-18T01:42:01.806Z,976.69
2023-01-18T01:42:42.315Z,976.69
2023-01-18T01:43:22.854Z,976.7
2023-01-18T01:44:03.356Z,976.69
2023-01-18T01:44:43.900Z,976.71
2023-01-18T01:45:24.416Z,976.73
2023-01-18T01:46:05.083Z,976.7
2023-01-18T01:46:45.550Z,976.73
2023-01-18T01:47:26.124Z,976.75
2023-01-18T01:48:06.660Z,976.73
2023-01-18T01:48:47.219Z,976.72
2023-01-18T01:49:27.715Z,976.75
2023-01-18T01:50:08.205Z,976.73
2023-01-18T01:50:48.764Z,976.72
2023-01-18T01:51:29.309Z,976.79
2023-01-18T01:52:10.783Z,976.78
2023-01-18T01:52:51.334Z,976.78
2023-01-18T01:53:31.912Z,976.75
2023-01-18T01:54:12.433Z,976.79
2023-01-18T01:54:52.966Z,976.79
2023-01-18T01:55:33.546Z,976.78
2023-01-18T01:56:14.065Z,976.82
2023-01-18T01:56:54.598Z,976.81
2023-01-18T01:57:35.166Z,976.86
2023-01-18T01:58:15.717Z,976.84
2023-01-18T02:00:13.568Z,976.77
2023-01-18T02:00:54.054Z,976.79
2023-01-18T02:01:35.263Z,976.84
2023-01-18T02:02:15.706Z,976.85
2023-01-18T02:02:56.485Z,976.88
2023-01-18T02:03:36.747Z,976.86
2023-01-18T02:04:17.296Z,976.88
2023-01-18T02:04:57.854Z,976.89
2023-01-18T02:05:39.148Z,976.9
2023-01-18T02:06:19.676Z,976.89
2023-01-18T02:07:00.219Z,976.91
2023-01-18T02:07:40.749Z,976.92
2023-01-18T02:08:21.263Z,976.95
2023-01-18T02:09:01.801Z,976.97
2023-01-18T02:09:42.316Z,976.93
2023-01-18T02:10:22.853Z,976.95
2023-01-18T02:11:03.348Z,976.99
2023-01-18T02:11:43.935Z,977.02
2023-01-18T02:12:24.404Z,976.97
2023-01-18T02:13:04.999Z,976.99
2023-01-18T02:13:45.531Z,976.99
2023-01-18T02:14:26.069Z,977.01
2023-01-18T02:15:06.607Z,977.01
2023-01-18T02:15:47.115Z,977
2023-01-18T02:16:27.695Z,977.03
2023-01-18T02:17:08.183Z,977
2023-01-18T02:17:48.721Z,977.01
2023-01-18T02:19:46.393Z,977.01
2023-01-18T02:20:26.983Z,977.06
2023-01-18T02:21:07.502Z,977.05
2023-01-18T02:21:48.086Z,977.04
2023-01-18T02:22:28.614Z,977.02
2023-01-18T02:23:09.136Z,977.04
2023-01-18T02:23:49.630Z,977.07
2023-01-18T02:24:30.169Z,977.06
2023-01-18T02:26:43.208Z,977.12
2023-01-18T02:27:23.716Z,977.14
2023-01-18T02:28:04.271Z,977.14
2023-01-18T02:28:44.823Z,977.15
2023-01-18T02:29:25.403Z,977.15
2023-01-18T02:30:05.922Z,977.15
2023-01-18T02:30:46.537Z,977.14
2023-01-18T02:32:59.986Z,977.17
2023-01-18T02:33:40.040Z,977.18
2023-01-18T02:34:20.525Z,977.18
2023-01-18T02:35:01.038Z,977.22
2023-01-18T02:35:41.536Z,977.24
2023-01-18T02:36:22.051Z,977.24
2023-01-18T02:37:02.576Z,977.22
2023-01-18T02:37:43.084Z,977.31
2023-01-18T02:38:23.584Z,977.27
2023-01-18T02:39:04.184Z,977.25
2023-01-18T02:39:44.743Z,977.29
2023-01-18T02:40:25.250Z,977.28
2023-01-18T02:41:05.792Z,977.3
2023-01-18T02:41:46.308Z,977.32
2023-01-18T02:42:26.858Z,977.31
2023-01-18T02:43:07.381Z,977.35
2023-01-18T02:43:47.885Z,977.38
2023-01-18T02:44:28.428Z,977.39
2023-01-18T02:45:08.966Z,977.41
2023-01-18T02:45:49.514Z,977.45
2023-01-18T02:48:02.507Z,977.41
2023-01-18T02:48:43.020Z,977.46
2023-01-18T02:49:23.570Z,977.44
2023-01-18T02:50:04.125Z,977.5
2023-01-18T02:50:45.270Z,977.47
2023-01-18T02:51:25.773Z,977.49
2023-01-18T02:53:38.776Z,977.53
2023-01-18T02:54:19.301Z,977.49
2023-01-18T02:54:59.851Z,977.52
2023-01-18T02:55:40.359Z,977.53
2023-01-18T02:56:20.863Z,977.54
2023-01-18T02:57:01.377Z,977.56
2023-01-18T02:57:41.876Z,977.51
2023-01-18T02:58:22.392Z,977.57
2023-01-18T02:59:02.955Z,977.56
2023-01-18T02:59:44.418Z,977.58
2023-01-18T03:00:24.920Z,977.57
2023-01-18T03:01:05.555Z,977.54
2023-01-18T03:01:45.987Z,977.6
2023-01-18T03:02:26.556Z,977.59
2023-01-18T03:03:06.980Z,977.63
2023-01-18T03:03:47.499Z,977.62
2023-01-18T03:04:28.051Z,977.62
2023-01-18T03:06:25.775Z,977.61
2023-01-18T03:07:06.484Z,977.58
2023-01-18T03:07:47.047Z,977.58
2023-01-18T03:08:27.636Z,977.59
2023-01-18T03:09:08.189Z,977.63
2023-01-18T03:09:48.734Z,977.58
2023-01-18T03:12:01.808Z,977.6
2023-01-18T03:12:42.290Z,977.62
2023-01-18T03:13:23.524Z,977.61
2023-01-18T03:14:04.022Z,977.6
2023-01-18T03:14:44.538Z,977.63
2023-01-18T03:15:25.060Z,977.64
2023-01-18T03:16:05.603Z,977.6
2023-01-18T03:16:46.078Z,977.67
2023-01-18T03:17:26.557Z,977.65
2023-01-18T03:18:07.078Z,977.66
2023-01-18T03:18:47.567Z,977.67
2023-01-18T03:19:28.073Z,977.67
2023-01-18T03:20:08.674Z,977.68
2023-01-18T03:20:49.104Z,977.68
2023-01-18T03:21:29.597Z,977.67
2023-01-18T03:22:10.184Z,977.69
2023-01-18T03:22:50.614Z,977.68
2023-01-18T03:23:31.137Z,977.65
2023-01-18T03:24:11.656Z,977.7
2023-01-18T03:24:52.175Z,977.72
2023-01-18T03:25:32.715Z,977.71
2023-01-18T03:26:13.199Z,977.74
2023-01-18T03:26:53.775Z,977.74
2023-01-18T03:27:34.276Z,977.75
2023-01-18T03:28:14.780Z,977.78
2023-01-18T03:28:55.283Z,977.8
2023-01-18T03:29:35.820Z,977.76
2023-01-18T03:30:17.020Z,977.85
2023-01-18T03:30:57.560Z,977.82
2023-01-18T03:31:38.083Z,977.84
2023-01-18T03:32:18.602Z,977.8
2023-01-18T03:32:59.510Z,977.81
2023-01-18T03:33:40.365Z,977.83
2023-01-18T03:34:20.902Z,977.85
2023-01-18T03:35:01.419Z,977.81
2023-01-18T03:35:41.949Z,977.81
2023-01-18T03:36:22.468Z,977.83
2023-01-18T03:37:02.988Z,977.83
2023-01-18T03:37:43.492Z,977.83
2023-01-18T03:38:24.007Z,977.84
2023-01-18T03:39:04.550Z,977.86
2023-01-18T03:39:45.175Z,977.8
2023-01-18T03:40:25.687Z,977.85
2023-01-18T03:41:06.214Z,977.86
2023-01-18T03:41:46.749Z,977.88
2023-01-18T03:42:27.255Z,977.88
2023-01-18T03:43:07.812Z,977.89
2023-01-18T03:43:48.311Z,977.89
2023-01-18T03:44:28.902Z,977.92
2023-01-18T03:45:09.421Z,977.92
2023-01-18T03:45:49.927Z,977.92
2023-01-18T03:46:30.519Z,977.97
2023-01-18T03:47:11.676Z,977.95
2023-01-18T03:50:28.081Z,978.01
2023-01-18T03:51:08.613Z,978.02
2023-01-18T03:51:49.113Z,978.05
2023-01-18T03:52:29.631Z,978.05
2023-01-18T03:53:10.151Z,978.06
2023-01-18T03:53:50.663Z,978.02
2023-01-18T03:54:31.184Z,978.07
2023-01-18T03:55:11.713Z,978.11
2023-01-18T03:55:52.218Z,978.11
2023-01-18T03:56:32.729Z,978.12
2023-01-18T03:57:13.246Z,978.1
2023-01-18T03:57:53.770Z,978.13
2023-01-18T03:58:34.316Z,978.16
2023-01-18T03:59:14.817Z,978.2
2023-01-18T03:59:55.316Z,978.2
2023-01-18T04:00:35.826Z,978.18
2023-01-18T04:01:16.462Z,978.22
2023-01-18T04:01:56.878Z,978.19
2023-01-18T04:02:37.498Z,978.19
2023-01-18T04:03:17.897Z,978.26
2023-01-18T04:03:58.411Z,978.22
2023-01-18T04:04:38.925Z,978.24
2023-01-18T04:05:19.492Z,978.26
2023-01-18T04:05:59.972Z,978.27
2023-01-18T04:06:40.493Z,978.29
2023-01-18T04:07:20.993Z,978.32
2023-01-18T04:08:01.532Z,978.29
2023-01-18T04:08:42.012Z,978.3
2023-01-18T04:09:22.520Z,978.35
2023-01-18T04:10:03.220Z,978.29
2023-01-18T04:10:43.770Z,978.33
2023-01-18T04:12:41.756Z,978.33
2023-01-18T04:13:22.285Z,978.35
2023-01-18T04:14:02.812Z,978.34
2023-01-18T04:14:43.302Z,978.39
2023-01-18T04:15:23.851Z,978.38
2023-01-18T04:16:04.411Z,978.41
2023-01-18T04:16:44.921Z,978.41
2023-01-18T04:18:57.969Z,978.42
2023-01-18T04:19:38.491Z,978.46
2023-01-18T04:20:18.983Z,978.51
2023-01-18T04:20:59.503Z,978.5
2023-01-18T04:21:40.008Z,978.5
2023-01-18T04:22:20.606Z,978.52
2023-01-18T04:23:01.415Z,978.5
2023-01-18T04:23:41.656Z,978.51
2023-01-18T04:24:22.173Z,978.53
2023-01-18T04:25:02.709Z,978.53
2023-01-18T04:25:43.242Z,978.52
2023-01-18T04:26:23.733Z,978.55
2023-01-18T04:27:04.291Z,978.54
2023-01-18T04:27:44.773Z,978.58
2023-01-18T04:28:26.149Z,978.56
2023-01-18T04:29:06.699Z,978.59
2023-01-18T04:29:47.214Z,978.58
2023-01-18T04:30:27.717Z,978.61
2023-01-18T04:31:08.321Z,978.58
2023-01-18T04:31:48.789Z,978.62
2023-01-18T04:32:29.304Z,978.63
2023-01-18T04:34:42.382Z,978.63
2023-01-18T04:35:22.938Z,978.69
2023-01-18T04:36:03.414Z,978.69
2023-01-18T04:36:44.634Z,978.69
2023-01-18T04:37:25.264Z,978.71
2023-01-18T04:38:05.778Z,978.73
2023-01-18T04:38:47.290Z,978.74
2023-01-18T04:39:27.818Z,978.76
2023-01-18T04:40:09.275Z,978.75
2023-01-18T04:42:07.207Z,978.82
2023-01-18T04:42:47.695Z,978.82
2023-01-18T04:43:28.237Z,978.88
2023-01-18T04:44:08.750Z,978.83
2023-01-18T04:44:49.244Z,978.86
2023-01-18T04:45:29.760Z,978.92
2023-01-18T04:46:10.305Z,978.91
2023-01-18T04:46:50.815Z,978.87
2023-01-18T04:47:31.333Z,978.91
2023-01-18T04:48:12.717Z,978.93
2023-01-18T04:48:53.298Z,978.92
2023-01-18T04:49:33.823Z,978.95
2023-01-18T04:50:14.349Z,978.97
2023-01-18T04:52:12.275Z,978.98
2023-01-18T04:52:52.795Z,979.01
2023-01-18T04:53:33.330Z,979.01
2023-01-18T04:54:13.848Z,979.04
2023-01-18T04:54:54.364Z,979.02
2023-01-18T04:55:34.890Z,979.01
2023-01-18T04:56:15.412Z,979.04
2023-01-18T04:56:55.918Z,979.04
2023-01-18T04:57:36.429Z,979.08
2023-01-18T04:58:16.965Z,979.08
2023-01-18T04:58:57.486Z,979.09
2023-01-18T04:59:38.072Z,979.1
2023-01-18T05:00:18.538Z,979.15
2023-01-18T05:00:59.109Z,979.11
2023-01-18T05:01:39.572Z,979.16
2023-01-18T05:02:20.102Z,979.17
2023-01-18T05:03:00.916Z,979.16
2023-01-18T05:03:41.119Z,979.19
2023-01-18T05:04:21.642Z,979.19
2023-01-18T05:05:02.150Z,979.24
2023-01-18T05:05:43.553Z,979.24
2023-01-18T05:06:24.076Z,979.26
2023-01-18T05:07:04.584Z,979.27
2023-01-18T05:07:45.116Z,979.28
2023-01-18T05:08:25.640Z,979.24
2023-01-18T05:09:06.188Z,979.3
2023-01-18T05:09:46.728Z,979.33
2023-01-18T05:10:27.225Z,979.35
2023-01-18T05:11:07.738Z,979.32
2023-01-18T05:11:48.892Z,979.3
2023-01-18T05:12:29.400Z,979.3
2023-01-18T05:13:09.916Z,979.36
2023-01-18T05:13:50.455Z,979.38
2023-01-18T05:14:30.986Z,979.37
2023-01-18T05:15:11.528Z,979.39
2023-01-18T05:15:52.044Z,979.35
2023-01-18T05:16:32.606Z,979.4
2023-01-18T05:17:13.089Z,979.42
2023-01-18T05:17:53.613Z,979.41
2023-01-18T05:18:34.125Z,979.43
2023-01-18T05:20:47.206Z,979.45
2023-01-18T05:21:27.714Z,979.52
2023-01-18T05:22:08.366Z,979.5
2023-01-18T05:22:48.842Z,979.51
2023-01-18T05:23:29.374Z,979.52
2023-01-18T05:25:59.182Z,979.63
2023-01-18T05:26:39.674Z,979.64
2023-01-18T05:27:20.215Z,979.64
2023-01-18T05:28:00.726Z,979.66
2023-01-18T05:28:41.264Z,979.71
2023-01-18T05:29:21.794Z,979.71
2023-01-18T05:30:02.347Z,979.72
2023-01-18T05:30:42.933Z,979.75
2023-01-18T05:31:23.471Z,979.79
2023-01-18T05:32:04.030Z,979.79
2023-01-18T05:32:44.555Z,979.81
2023-01-18T05:33:25.081Z,979.81
2023-01-18T05:34:05.608Z,979.86
2023-01-18T05:34:46.180Z,979.85
2023-01-18T05:35:26.662Z,979.88
2023-01-18T05:36:07.909Z,979.9
2023-01-18T05:36:48.422Z,979.9
2023-01-18T05:37:28.945Z,979.92
2023-01-18T05:38:09.452Z,979.94
2023-01-18T05:38:49.981Z,979.91
2023-01-18T05:39:30.494Z,979.96
2023-01-18T05:40:11.025Z,979.97
2023-01-18T05:40:51.540Z,980
2023-01-18T05:41:32.096Z,980
2023-01-18T05:42:12.597Z,980.03
2023-01-18T05:44:25.639Z,980.04
2023-01-18T05:45:06.144Z,980.06
2023-01-18T05:45:46.700Z,980.05
2023-01-18T05:46:27.143Z,980.06
2023-01-18T05:47:07.637Z,980.11
2023-01-18T05:47:48.152Z,980.14
2023-01-18T05:48:28.667Z,980.14
2023-01-18T05:49:09.144Z,980.12
2023-01-18T05:49:49.697Z,980.13
2023-01-18T05:50:30.190Z,980.14
2023-01-18T05:51:10.730Z,980.15
2023-01-18T05:51:51.237Z,980.09
2023-01-18T05:52:31.743Z,980.11
2023-01-18T05:53:12.216Z,980.18
2023-01-18T05:53:52.711Z,980.14
2023-01-18T05:54:33.177Z,980.15
2023-01-18T05:55:13.701Z,980.16
2023-01-18T05:55:54.211Z,980.17
2023-01-18T05:56:34.726Z,980.17
2023-01-18T05:57:15.246Z,980.19
2023-01-18T05:57:55.803Z,980.21
2023-01-18T05:58:36.332Z,980.21
2023-01-18T05:59:16.869Z,980.19
2023-01-18T05:59:57.375Z,980.23
2023-01-18T06:00:37.901Z,980.25
2023-01-18T06:01:18.496Z,980.18
2023-01-18T06:01:58.989Z,980.28
2023-01-18T06:02:39.460Z,980.26
2023-01-18T06:03:19.992Z,980.31
2023-01-18T06:04:01.389Z,980.32
2023-01-18T06:04:41.940Z,980.33
2023-01-18T06:05:22.367Z,980.35
2023-01-18T06:06:02.883Z,980.36
2023-01-18T06:06:43.404Z,980.41
2023-01-18T06:07:23.921Z,980.38
2023-01-18T06:08:05.165Z,980.41
2023-01-18T06:08:45.671Z,980.43
2023-01-18T06:09:26.218Z,980.46
2023-01-18T06:10:06.729Z,980.45
2023-01-18T06:10:47.362Z,980.49
2023-01-18T06:13:00.944Z,980.54
2023-01-18T06:13:43.975Z,980.58
2023-01-18T06:14:24.526Z,980.58
2023-01-18T06:15:05.049Z,980.61
2023-01-18T06:15:48.797Z,980.66
2023-01-18T06:16:27.941Z,980.62
2023-01-18T06:17:09.598Z,980.68
2023-01-18T06:17:50.122Z,980.7
2023-01-18T06:18:32.104Z,980.72
2023-01-18T06:19:14.448Z,980.7
2023-01-18T06:19:56.239Z,980.72
2023-01-18T06:22:10.759Z,980.79
2023-01-18T06:22:51.241Z,980.77
2023-01-18T06:23:31.777Z,980.77
2023-01-18T06:24:12.288Z,980.78
2023-01-18T06:24:52.819Z,980.82
2023-01-18T06:25:33.349Z,980.85
2023-01-18T06:26:13.904Z,980.84
2023-01-18T06:26:54.407Z,980.83
2023-01-18T06:27:34.942Z,980.87
2023-01-18T06:28:15.458Z,980.88
2023-01-18T06:28:55.943Z,980.88
2023-01-18T06:29:36.473Z,980.88
2023-01-18T06:30:16.997Z,980.91
2023-01-18T06:30:57.551Z,980.94
2023-01-18T06:31:38.081Z,980.95
2023-01-18T06:32:18.598Z,980.96
2023-01-18T06:32:59.400Z,981.02
2023-01-18T06:33:39.660Z,981.03
2023-01-18T06:34:20.137Z,981.01
2023-01-18T06:35:00.648Z,981.04
2023-01-18T06:35:41.150Z,981.12
2023-01-18T06:36:21.667Z,981.12
2023-01-18T06:38:34.842Z,981.17
2023-01-18T06:39:15.354Z,981.15
2023-01-18T06:39:55.860Z,981.15
2023-01-18T06:40:37.222Z,981.21
2023-01-18T06:42:51.551Z,981.22
2023-01-18T06:43:32.072Z,981.24
2023-01-18T06:44:12.621Z,981.26
2023-01-18T06:44:53.217Z,981.27
2023-01-18T06:45:33.769Z,981.31
2023-01-18T06:46:14.356Z,981.32
2023-01-18T06:46:54.999Z,981.29
2023-01-18T06:47:36.407Z,981.34
2023-01-18T06:48:16.956Z,981.33
2023-01-18T06:48:58.587Z,981.38
2023-01-18T06:49:39.124Z,981.33
2023-01-18T06:50:19.629Z,981.39
2023-01-18T06:51:00.181Z,981.4
2023-01-18T06:51:40.842Z,981.35
2023-01-18T06:52:21.631Z,981.39
2023-01-18T06:53:02.178Z,981.39
2023-01-18T06:53:42.694Z,981.41
2023-01-18T06:55:55.786Z,981.47
2023-01-18T06:56:36.271Z,981.49
2023-01-18T06:57:16.825Z,981.51
2023-01-18T06:57:57.341Z,981.53
2023-01-18T06:58:37.861Z,981.5
2023-01-18T07:00:52.731Z,981.6
2023-01-18T07:01:33.306Z,981.61
2023-01-18T07:02:13.753Z,981.64
2023-01-18T07:02:54.123Z,981.62
2023-01-18T07:05:08.652Z,981.66
2023-01-18T07:05:49.204Z,981.63
2023-01-18T07:06:29.647Z,981.65
2023-01-18T07:07:10.143Z,981.65
2023-01-18T07:07:50.609Z,981.67
2023-01-18T07:08:31.168Z,981.67
2023-01-18T07:09:11.669Z,981.69
2023-01-18T07:09:52.190Z,981.67
2023-01-18T07:10:32.704Z,981.71
2023-01-18T07:11:13.236Z,981.68
2023-01-18T07:11:53.754Z,981.72
2023-01-18T07:12:34.276Z,981.73
2023-01-18T07:13:14.771Z,981.76
2023-01-18T07:13:55.407Z,981.74
2023-01-18T07:14:35.927Z,981.76
2023-01-18T07:15:21.732Z,981.8
2023-01-18T07:15:57.180Z,981.81
2023-01-18T07:16:37.512Z,981.82
2023-01-18T07:17:18.014Z,981.82
2023-01-18T07:17:58.508Z,981.86
2023-01-18T07:18:39.033Z,981.86
2023-01-18T07:19:19.538Z,981.88
2023-01-18T07:20:00.055Z,981.87
2023-01-18T07:20:40.553Z,981.85
2023-01-18T07:21:21.093Z,981.89
2023-01-18T07:22:01.597Z,981.91
2023-01-18T07:22:42.138Z,981.9
2023-01-18T07:23:22.621Z,981.93
2023-01-18T07:25:35.658Z,981.94
2023-01-18T07:26:16.199Z,982
2023-01-18T07:26:56.721Z,982
2023-01-18T07:27:37.228Z,982.01
2023-01-18T07:28:17.736Z,982.02
2023-01-18T07:28:58.264Z,982.02
2023-01-18T07:29:38.772Z,982.03
2023-01-18T07:30:19.279Z,982.05
2023-01-18T07:30:59.798Z,982.04
2023-01-18T07:31:40.354Z,982.06
2023-01-18T07:32:20.828Z,982.06
2023-01-18T07:33:01.585Z,982.14
2023-01-18T07:33:41.867Z,982.13
2023-01-18T07:34:22.513Z,982.16
2023-01-18T07:36:20.458Z,982.12
2023-01-18T07:37:00.996Z,982.16
2023-01-18T07:37:41.516Z,982.17
2023-01-18T07:38:22.046Z,982.16
2023-01-18T07:39:02.559Z,982.18
2023-01-18T07:39:43.102Z,982.18
2023-01-18T07:41:56.229Z,982.21
2023-01-18T07:42:37.704Z,982.22
2023-01-18T07:43:18.274Z,982.21
2023-01-18T07:43:58.812Z,982.26
2023-01-18T07:44:39.312Z,982.26
2023-01-18T07:45:19.829Z,982.24
2023-01-18T07:46:00.419Z,982.23
2023-01-18T07:46:41.475Z,982.24
2023-01-18T07:47:21.977Z,982.24
2023-01-18T07:48:02.532Z,982.25
2023-01-18T07:48:43.032Z,982.24
2023-01-18T07:49:23.514Z,982.27
2023-01-18T07:50:04.048Z,982.28
2023-01-18T07:50:44.561Z,982.28
2023-01-18T07:51:25.072Z,982.32
2023-01-18T07:52:07.501Z,982.31
2023-01-18T07:52:48.011Z,982.3
2023-01-18T07:53:28.545Z,982.35
2023-01-18T07:54:09.039Z,982.31
2023-01-18T07:54:49.558Z,982.31
2023-01-18T07:55:30.090Z,982.34
2023-01-18T07:56:10.660Z,982.36
2023-01-18T07:56:51.196Z,982.39
2023-01-18T07:57:31.730Z,982.41
2023-01-18T07:58:12.968Z,982.43
2023-01-18T07:58:53.488Z,982.4
2023-01-18T07:59:34.026Z,982.41
2023-01-18T08:01:32.103Z,982.42
2023-01-18T08:02:12.611Z,982.45
2023-01-18T08:02:52.999Z,982.5
2023-01-18T08:03:33.479Z,982.48
2023-01-18T08:04:14.022Z,982.48
2023-01-18T08:06:27.018Z,982.54
2023-01-18T08:07:08.076Z,982.56
2023-01-18T08:07:48.583Z,982.54
2023-01-18T08:08:29.193Z,982.56
2023-01-18T08:10:43.695Z,982.6
2023-01-18T08:11:24.209Z,982.65
2023-01-18T08:12:04.726Z,982.68
2023-01-18T08:12:45.246Z,982.69
2023-01-18T08:13:25.774Z,982.68
2023-01-18T08:14:06.287Z,982.73
2023-01-18T08:16:19.482Z,982.77
2023-01-18T08:17:02.311Z,982.83
2023-01-18T08:17:42.827Z,982.85
2023-01-18T08:18:23.387Z,982.88
2023-01-18T08:19:03.966Z,982.89
2023-01-18T08:19:44.417Z,982.92
2023-01-18T08:20:24.962Z,982.89
2023-01-18T08:22:18.324Z,982.91
2023-01-18T08:22:59.159Z,982.92
2023-01-18T08:23:39.363Z,982.95
2023-01-18T08:24:19.868Z,982.99
2023-01-18T08:25:00.467Z,983
2023-01-18T08:25:41.001Z,983.03
2023-01-18T08:26:21.533Z,983.04
2023-01-18T08:27:02.113Z,983.04
2023-01-18T08:27:42.598Z,983.04
2023-01-18T08:28:23.127Z,983.09
2023-01-18T08:29:03.676Z,983.09
2023-01-18T08:29:44.181Z,983.07
2023-01-18T08:30:24.728Z,983.1
2023-01-18T08:31:05.334Z,983.14
2023-01-18T08:31:45.785Z,983.13
2023-01-18T08:32:26.307Z,983.18
2023-01-18T08:33:06.861Z,983.2
2023-01-18T08:33:47.433Z,983.2
2023-01-18T08:34:28.082Z,983.25
2023-01-18T08:35:09.310Z,983.26
2023-01-18T08:35:49.860Z,983.29
2023-01-18T08:36:30.357Z,983.28
2023-01-18T08:37:10.893Z,983.28
2023-01-18T08:39:24.653Z,983.29
2023-01-18T08:40:05.190Z,983.33
2023-01-18T08:40:46.466Z,983.35
2023-01-18T08:41:26.958Z,983.35
2023-01-18T08:42:07.559Z,983.38
2023-01-18T08:42:48.083Z,983.37
2023-01-18T08:45:04.157Z,983.39
2023-01-18T08:45:44.957Z,983.39
2023-01-18T08:46:26.432Z,983.35
2023-01-18T08:47:06.963Z,983.35
2023-01-18T08:47:48.647Z,983.4
2023-01-18T08:50:01.997Z,983.42
2023-01-18T08:50:42.456Z,983.39
2023-01-18T08:51:23.142Z,983.39
2023-01-18T08:52:03.500Z,983.42
2023-01-18T08:52:44.052Z,983.38
2023-01-18T08:53:24.543Z,983.45
2023-01-18T08:55:38.738Z,983.52
2023-01-18T08:56:19.259Z,983.53
2023-01-18T08:56:59.766Z,983.54
2023-01-18T08:57:40.274Z,983.57
2023-01-18T08:58:20.773Z,983.57
2023-01-18T08:59:01.342Z,983.59
2023-01-18T08:59:41.805Z,983.64
2023-01-18T09:00:22.310Z,983.63
2023-01-18T09:01:02.864Z,983.64
2023-01-18T09:01:43.573Z,983.69
2023-01-18T09:03:36.274Z,983.67
2023-01-18T09:04:16.800Z,983.71
2023-01-18T09:04:57.296Z,983.71
2023-01-18T09:05:37.830Z,983.73
2023-01-18T09:06:18.340Z,983.74
2023-01-18T09:06:58.850Z,983.75
2023-01-18T09:07:39.353Z,983.78
2023-01-18T09:08:20.729Z,983.77
2023-01-18T09:09:01.264Z,983.83
2023-01-18T09:09:41.799Z,983.82
2023-01-18T09:10:22.314Z,983.86
2023-01-18T09:11:02.815Z,983.87
2023-01-18T09:11:43.991Z,983.9
2023-01-18T09:12:24.527Z,983.94
2023-01-18T09:13:05.028Z,983.94
2023-01-18T09:13:59.674Z,983.98
2023-01-18T09:14:26.709Z,984
2023-01-18T09:15:07.273Z,984.03
2023-01-18T09:15:47.853Z,984.03
2023-01-18T09:16:28.411Z,984.05
2023-01-18T09:17:08.841Z,984.09
2023-01-18T09:17:49.357Z,984.09
2023-01-18T09:18:29.876Z,984.09
2023-01-18T09:19:10.398Z,984.09
2023-01-18T09:19:50.916Z,984.1
2023-01-18T09:20:31.452Z,984.14
2023-01-18T09:21:12.038Z,984.14
2023-01-18T09:21:52.591Z,984.16
2023-01-18T09:22:33.151Z,984.16
2023-01-18T09:23:14.377Z,984.16
2023-01-18T09:23:54.941Z,984.15
2023-01-18T09:24:35.515Z,984.18
2023-01-18T09:25:16.044Z,984.23
2023-01-18T09:25:56.596Z,984.24
2023-01-18T09:28:11.852Z,984.27
2023-01-18T09:28:53.230Z,984.26
2023-01-18T09:29:34.558Z,984.29
2023-01-18T09:30:16.290Z,984.24
2023-01-18T09:31:00.178Z,984.34
2023-01-18T09:31:47.966Z,984.33
2023-01-18T09:32:31.347Z,984.34
2023-01-18T09:33:14.678Z,984.32
2023-01-18T09:34:06.260Z,984.35
2023-01-18T09:34:39.965Z,984.34
2023-01-18T09:35:24.299Z,984.33
2023-01-18T09:36:06.839Z,984.36
2023-01-18T09:36:48.221Z,984.38
2023-01-18T09:37:34.969Z,984.36
2023-01-18T09:38:22.079Z,984.4
2023-01-18T09:39:04.463Z,984.45
2023-01-18T09:39:52.051Z,984.49
2023-01-18T09:40:30.582Z,984.45